createdAt,value
2018-04-14T00:01:11.144Z,9.63
2018-04-14T00:03:40.247Z,9.62
2018-04-14T00:06:09.552Z,10.19
2018-04-14T00:08:38.803Z,9.84
2018-04-14T00:11:08.003Z,9.84
2018-04-14T00:13:37.077Z,9.86
2018-04-14T00:16:06.139Z,9.67
2018-04-14T00:18:35.251Z,9.60
2018-04-14T00:21:04.384Z,9.70
2018-04-14T00:23:33.344Z,10.27
2018-04-14T00:26:02.479Z,10.40
2018-04-14T00:28:31.765Z,10.40
2018-04-14T00:31:00.879Z,10.13
2018-04-14T00:33:30.125Z,10.05
2018-04-14T00:35:59.181Z,10.43
2018-04-14T00:38:28.343Z,10.52
2018-04-14T00:40:57.611Z,10.68
2018-04-14T00:43:26.687Z,10.66
2018-04-14T00:45:55.868Z,10.53
2018-04-14T00:48:25.000Z,10.25
2018-04-14T00:50:54.288Z,9.98
2018-04-14T00:53:34.587Z,9.62
2018-04-14T00:56:03.591Z,10.21
2018-04-14T00:58:32.595Z,10.23
2018-04-14T01:01:01.606Z,10.11
2018-04-14T01:03:31.543Z,9.91
2018-04-14T01:06:00.606Z,9.65
2018-04-14T01:08:30.036Z,9.72
2018-04-14T01:10:59.091Z,10.13
2018-04-14T01:13:28.324Z,9.85
2018-04-14T01:15:57.499Z,9.90
2018-04-14T01:18:26.911Z,10.57
2018-04-14T01:20:56.061Z,10.41
2018-04-14T01:23:25.188Z,9.91
2018-04-14T01:25:54.402Z,9.68
2018-04-14T01:28:23.392Z,9.54
2018-04-14T01:30:52.341Z,9.69
2018-04-14T01:33:21.336Z,9.92
2018-04-14T01:35:50.331Z,9.99
2018-04-14T01:38:19.559Z,9.93
2018-04-14T01:40:48.625Z,9.78
2018-04-14T01:43:17.755Z,9.80
2018-04-14T01:45:46.815Z,9.86
2018-04-14T01:48:16.151Z,9.98
2018-04-14T01:50:45.200Z,10.39
2018-04-14T01:53:14.141Z,9.87
2018-04-14T01:55:43.338Z,9.68
2018-04-14T01:58:12.705Z,10.21
2018-04-14T02:00:41.895Z,10.39
2018-04-14T02:03:10.992Z,9.79
2018-04-14T02:05:40.291Z,9.91
2018-04-14T02:08:09.453Z,10.20
2018-04-14T02:10:38.496Z,10.13
2018-04-14T02:13:07.608Z,10.03
2018-04-14T02:15:36.701Z,9.54
2018-04-14T02:18:05.876Z,10.07
2018-04-14T02:20:35.077Z,9.99
2018-04-14T02:23:04.045Z,10.23
2018-04-14T02:25:33.077Z,9.72
2018-04-14T02:28:02.207Z,9.53
2018-04-14T02:30:31.212Z,9.52
2018-04-14T02:33:00.477Z,9.65
2018-04-14T02:35:29.960Z,9.55
2018-04-14T02:37:59.057Z,9.79
2018-04-14T02:40:28.292Z,10.40
2018-04-14T02:42:57.428Z,10.12
2018-04-14T02:45:26.444Z,9.85
2018-04-14T02:47:55.452Z,9.56
2018-04-14T02:50:24.645Z,9.63
2018-04-14T02:52:53.753Z,9.83
2018-04-14T02:55:22.972Z,10.19
2018-04-14T02:57:52.135Z,9.97
2018-04-14T03:00:21.237Z,9.71
2018-04-14T03:02:50.320Z,9.55
2018-04-14T03:05:19.373Z,9.59
2018-04-14T03:07:48.570Z,10.19
2018-04-14T03:10:17.733Z,9.76
2018-04-14T03:12:46.673Z,9.51
2018-04-14T03:15:15.757Z,9.48
2018-04-14T03:17:44.807Z,9.72
2018-04-14T03:20:14.144Z,9.50
2018-04-14T03:22:43.188Z,9.30
2018-04-14T03:25:12.323Z,9.49
2018-04-14T03:27:41.844Z,9.40
2018-04-14T03:30:11.237Z,9.50
2018-04-14T03:32:40.299Z,9.41
2018-04-14T03:35:09.636Z,9.33
2018-04-14T03:37:38.695Z,9.66
2018-04-14T03:40:07.929Z,9.60
2018-04-14T03:42:37.184Z,9.43
2018-04-14T03:45:06.389Z,9.40
2018-04-14T03:47:35.644Z,9.35
2018-04-14T03:50:05.177Z,9.30
2018-04-14T03:52:34.451Z,9.44
2018-04-14T03:55:04.160Z,9.50
2018-04-14T03:57:33.300Z,9.39
2018-04-14T04:00:02.425Z,9.43
2018-04-14T04:02:31.492Z,9.70
2018-04-14T04:05:00.747Z,9.89
2018-04-14T04:07:29.797Z,10.11
2018-04-14T04:09:58.991Z,9.87
2018-04-14T04:12:28.114Z,10.53
2018-04-14T04:14:57.053Z,10.47
2018-04-14T04:17:26.207Z,10.27
2018-04-14T04:20:06.849Z,9.65
2018-04-14T04:22:47.172Z,9.82
2018-04-14T04:25:41.756Z,9.87
2018-04-14T04:28:10.484Z,9.79
2018-04-14T04:30:39.059Z,9.81
2018-04-14T04:33:07.688Z,9.98
2018-04-14T04:35:36.330Z,9.91
2018-04-14T04:38:04.938Z,10.22
2018-04-14T04:40:33.499Z,9.89
2018-04-14T04:43:02.148Z,9.58
2018-04-14T04:45:30.773Z,9.42
2018-04-14T04:47:59.512Z,9.65
2018-04-14T04:50:28.147Z,9.64
2018-04-14T04:52:56.941Z,10.26
2018-04-14T04:55:25.507Z,10.32
2018-04-14T04:57:54.114Z,9.85
2018-04-14T05:00:22.907Z,10.10
2018-04-14T05:02:51.524Z,10.63
2018-04-14T05:05:20.117Z,10.85
2018-04-14T05:07:48.800Z,10.64
2018-04-14T05:10:17.371Z,10.22
2018-04-14T05:12:46.016Z,10.38
2018-04-14T05:15:14.644Z,10.65
2018-04-14T05:17:43.284Z,10.73
2018-04-14T05:20:12.045Z,11.04
2018-04-14T05:22:40.717Z,10.95
2018-04-14T05:25:09.301Z,10.82
2018-04-14T05:27:38.030Z,10.87
2018-04-14T05:30:06.671Z,10.61
2018-04-14T05:32:35.314Z,10.58
2018-04-14T05:35:03.957Z,10.38
2018-04-14T05:37:32.602Z,10.27
2018-04-14T05:40:01.173Z,10.34
2018-04-14T05:42:29.819Z,9.95
2018-04-14T05:44:58.437Z,9.76
2018-04-14T05:47:27.063Z,10.29
2018-04-14T05:49:55.720Z,10.38
2018-04-14T05:52:24.385Z,10.88
2018-04-14T05:54:53.068Z,11.17
2018-04-14T05:57:21.725Z,11.04
2018-04-14T05:59:50.453Z,10.61
2018-04-14T06:02:19.066Z,10.68
2018-04-14T06:04:47.712Z,11.39
2018-04-14T06:07:16.360Z,11.32
2018-04-14T06:09:44.949Z,11.02
2018-04-14T06:12:13.530Z,10.88
2018-04-14T06:14:42.110Z,10.92
2018-04-14T06:17:10.700Z,11.23
2018-04-14T06:19:39.433Z,11.25
2018-04-14T06:22:08.142Z,11.07
2018-04-14T06:24:36.730Z,11.11
2018-04-14T06:27:05.338Z,11.08
2018-04-14T06:29:33.960Z,11.66
2018-04-14T06:32:02.610Z,11.15
2018-04-14T06:34:31.390Z,11.11
2018-04-14T06:37:00.035Z,10.91
2018-04-14T06:39:28.621Z,10.39
2018-04-14T06:41:57.247Z,11.31
2018-04-14T06:44:25.935Z,11.24
2018-04-14T06:46:54.781Z,10.96
2018-04-14T06:49:23.405Z,11.15
2018-04-14T06:51:52.021Z,11.42
2018-04-14T06:54:20.776Z,11.89
2018-04-14T06:56:49.360Z,11.64
2018-04-14T06:59:17.919Z,11.65
2018-04-14T07:01:46.657Z,10.92
2018-04-14T07:04:15.260Z,10.68
2018-04-14T07:06:43.847Z,10.80
2018-04-14T07:09:12.493Z,11.36
2018-04-14T07:11:41.124Z,12.09
2018-04-14T07:14:09.769Z,12.34
2018-04-14T07:16:38.445Z,11.08
2018-04-14T07:19:07.387Z,11.20
2018-04-14T07:21:35.908Z,10.86
2018-04-14T07:24:04.665Z,11.63
2018-04-14T07:26:33.198Z,11.98
2018-04-14T07:29:02.072Z,12.26
2018-04-14T07:31:30.735Z,12.15
2018-04-14T07:33:59.300Z,11.73
2018-04-14T07:36:27.944Z,11.92
2018-04-14T07:38:56.473Z,11.81
2018-04-14T07:41:25.070Z,12.00
2018-04-14T07:43:53.697Z,11.66
2018-04-14T07:46:22.288Z,12.35
2018-04-14T07:48:50.904Z,12.23
2018-04-14T07:51:19.635Z,12.03
2018-04-14T07:53:48.593Z,12.69
2018-04-14T07:56:17.168Z,12.10
2018-04-14T07:58:45.817Z,12.39
2018-04-14T08:01:14.449Z,12.05
2018-04-14T08:03:43.170Z,12.44
2018-04-14T08:06:11.899Z,12.56
2018-04-14T08:08:40.617Z,13.18
2018-04-14T08:11:09.295Z,12.76
2018-04-14T08:13:38.052Z,12.23
2018-04-14T08:16:06.677Z,12.90
2018-04-14T08:18:35.400Z,11.65
2018-04-14T08:21:04.079Z,12.14
2018-04-14T08:23:32.784Z,12.94
2018-04-14T08:26:01.322Z,12.95
2018-04-14T08:28:30.361Z,12.53
2018-04-14T08:30:59.145Z,12.74
2018-04-14T08:33:27.775Z,13.24
2018-04-14T08:35:56.415Z,12.30
2018-04-14T08:38:25.117Z,12.41
2018-04-14T08:40:53.792Z,12.19
2018-04-14T08:43:22.420Z,12.68
2018-04-14T08:45:51.071Z,13.21
2018-04-14T08:48:19.813Z,13.16
2018-04-14T08:50:48.560Z,13.54
2018-04-14T08:53:17.277Z,12.65
2018-04-14T08:55:45.910Z,12.76
2018-04-14T08:58:14.599Z,12.67
2018-04-14T09:00:43.223Z,12.83
2018-04-14T09:03:11.909Z,13.13
2018-04-14T09:05:40.495Z,12.54
2018-04-14T09:08:09.232Z,13.37
2018-04-14T09:10:37.877Z,12.55
2018-04-14T09:13:06.656Z,12.65
2018-04-14T09:15:35.284Z,13.62
2018-04-14T09:18:04.503Z,13.69
2018-04-14T09:20:33.672Z,14.14
2018-04-14T09:23:02.896Z,14.35
2018-04-14T09:25:31.961Z,13.94
2018-04-14T09:28:01.178Z,13.67
2018-04-14T09:30:30.333Z,13.38
2018-04-14T09:32:59.383Z,13.22
2018-04-14T09:35:28.430Z,13.63
2018-04-14T09:37:57.619Z,13.28
2018-04-14T09:40:26.722Z,13.05
2018-04-14T09:42:55.868Z,13.63
2018-04-14T09:45:25.047Z,13.81
2018-04-14T09:47:54.173Z,13.99
2018-04-14T09:50:23.263Z,14.01
2018-04-14T09:52:52.400Z,13.46
2018-04-14T09:55:21.344Z,13.35
2018-04-14T09:57:50.449Z,13.55
2018-04-14T10:00:25.417Z,13.94
2018-04-14T10:03:00.710Z,14.07
2018-04-14T10:05:29.864Z,13.40
2018-04-14T10:07:58.960Z,13.28
2018-04-14T10:10:28.128Z,13.11
2018-04-14T10:12:57.356Z,13.46
2018-04-14T10:15:26.617Z,13.10
2018-04-14T10:17:55.599Z,13.16
2018-04-14T10:20:24.743Z,13.10
2018-04-14T10:22:53.940Z,13.20
2018-04-14T10:25:23.102Z,13.91
2018-04-14T10:27:52.239Z,14.38
2018-04-14T10:30:21.397Z,13.53
2018-04-14T10:32:50.492Z,13.98
2018-04-14T10:35:19.515Z,14.55
2018-04-14T10:37:48.674Z,15.02
2018-04-14T10:40:17.681Z,14.43
2018-04-14T10:42:46.756Z,14.02
2018-04-14T10:45:15.817Z,15.47
2018-04-14T10:47:44.839Z,15.48
2018-04-14T10:50:13.841Z,14.93
2018-04-14T10:52:43.039Z,15.17
2018-04-14T10:55:12.235Z,14.93
2018-04-14T10:57:41.503Z,14.34
2018-04-14T11:00:10.531Z,14.31
2018-04-14T11:02:39.600Z,14.79
2018-04-14T11:05:08.868Z,14.36
2018-04-14T11:07:37.991Z,14.97
2018-04-14T11:10:07.129Z,13.94
2018-04-14T11:12:36.283Z,14.03
2018-04-14T11:15:05.540Z,13.72
2018-04-14T11:17:34.503Z,13.52
2018-04-14T11:20:03.686Z,14.44
2018-04-14T11:22:32.829Z,14.30
2018-04-14T11:25:01.996Z,14.14
2018-04-14T11:27:31.122Z,13.63
2018-04-14T11:30:00.234Z,14.11
2018-04-14T11:32:29.623Z,14.29
2018-04-14T11:34:58.692Z,13.35
2018-04-14T11:37:27.771Z,14.17
2018-04-14T11:39:57.008Z,14.12
2018-04-14T11:42:26.217Z,13.86
2018-04-14T11:44:55.352Z,13.42
2018-04-14T11:47:25.078Z,13.61
2018-04-14T11:49:54.179Z,12.96
2018-04-14T11:52:23.356Z,13.75
2018-04-14T11:54:52.701Z,13.27
2018-04-14T11:57:21.810Z,13.57
2018-04-14T11:59:50.800Z,13.33
2018-04-14T12:02:20.106Z,13.11
2018-04-14T12:04:49.332Z,13.30
2018-04-14T12:07:18.688Z,13.40
2018-04-14T12:09:47.812Z,13.19
2018-04-14T12:12:16.765Z,13.67
2018-04-14T12:14:45.901Z,12.55
2018-04-14T12:17:14.924Z,12.90
2018-04-14T12:19:44.193Z,12.92
2018-04-14T12:22:13.161Z,13.16
2018-04-14T12:24:42.284Z,13.64
2018-04-14T12:27:11.433Z,13.36
2018-04-14T12:29:40.867Z,13.36
2018-04-14T12:32:10.034Z,13.43
2018-04-14T12:34:39.203Z,14.00
2018-04-14T12:37:08.459Z,13.95
2018-04-14T12:39:38.048Z,14.14
2018-04-14T12:42:06.993Z,13.96
2018-04-14T12:44:36.135Z,13.33
2018-04-14T12:47:05.484Z,12.82
2018-04-14T12:49:35.092Z,13.80
2018-04-14T12:52:04.251Z,13.14
2018-04-14T12:54:33.476Z,12.62
2018-04-14T12:57:02.585Z,13.00
2018-04-14T12:59:31.626Z,13.55
2018-04-14T13:02:00.821Z,13.39
2018-04-14T13:04:30.005Z,13.23
2018-04-14T13:06:59.117Z,13.43
2018-04-14T13:09:28.370Z,13.60
2018-04-14T13:11:57.504Z,13.09
2018-04-14T13:14:26.541Z,13.01
2018-04-14T13:16:56.416Z,12.93
2018-04-14T13:19:25.409Z,12.78
2018-04-14T13:21:54.608Z,13.11
2018-04-14T13:24:23.748Z,12.55
2018-04-14T13:26:52.913Z,12.66
2018-04-14T13:29:21.907Z,13.13
2018-04-14T13:31:50.942Z,12.88
2018-04-14T13:34:20.254Z,12.75
2018-04-14T13:36:49.345Z,12.91
2018-04-14T13:39:18.494Z,12.97
2018-04-14T13:41:47.755Z,12.90
2018-04-14T13:44:16.976Z,12.80
2018-04-14T13:46:46.263Z,12.29
2018-04-14T13:49:15.461Z,12.34
2018-04-14T13:51:45.572Z,12.24
2018-04-14T13:54:14.739Z,13.28
2018-04-14T13:56:43.767Z,12.89
2018-04-14T13:59:12.828Z,12.76
2018-04-14T14:01:41.992Z,12.57
2018-04-14T14:04:11.137Z,13.03
2018-04-14T14:06:40.283Z,12.44
2018-04-14T14:09:09.497Z,12.36
2018-04-14T14:11:38.636Z,12.69
2018-04-14T14:14:08.313Z,13.20
2018-04-14T14:16:37.535Z,12.44
2018-04-14T14:19:06.597Z,12.74
2018-04-14T14:21:35.843Z,12.83
2018-04-14T14:24:04.960Z,13.16
2018-04-14T14:26:34.076Z,12.64
2018-04-14T14:29:03.285Z,12.37
2018-04-14T14:31:32.475Z,12.34
2018-04-14T14:34:01.568Z,12.83
2018-04-14T14:36:30.672Z,13.04
2018-04-14T14:39:00.497Z,12.44
2018-04-14T14:41:29.612Z,12.49
2018-04-14T14:43:58.674Z,12.37
2018-04-14T14:46:27.972Z,12.68
2018-04-14T14:48:56.967Z,12.38
2018-04-14T14:51:26.676Z,12.63
2018-04-14T14:53:55.832Z,12.63
2018-04-14T14:56:24.976Z,12.32
2018-04-14T14:58:54.220Z,12.84
2018-04-14T15:01:23.296Z,12.48
2018-04-14T15:03:52.572Z,12.18
2018-04-14T15:06:21.718Z,12.78
2018-04-14T15:08:50.917Z,12.50
2018-04-14T15:11:19.956Z,12.57
2018-04-14T15:13:49.256Z,11.94
2018-04-14T15:16:18.499Z,12.00
2018-04-14T15:18:47.565Z,12.09
2018-04-14T15:21:16.567Z,12.09
2018-04-14T15:23:45.791Z,12.37
2018-04-14T15:26:14.826Z,11.98
2018-04-14T15:28:43.808Z,12.11
2018-04-14T15:31:12.887Z,12.04
2018-04-14T15:33:42.082Z,12.18
2018-04-14T15:36:11.235Z,12.15
2018-04-14T15:38:40.572Z,12.37
2018-04-14T15:41:09.593Z,12.43
2018-04-14T15:43:38.572Z,12.04
2018-04-14T15:46:07.975Z,11.94
2018-04-14T15:48:37.011Z,12.16
2018-04-14T15:51:06.375Z,11.83
2018-04-14T15:53:35.572Z,11.92
2018-04-14T15:56:04.727Z,12.23
2018-04-14T15:58:33.728Z,12.09
2018-04-14T16:01:02.917Z,12.11
2018-04-14T16:03:32.113Z,12.10
2018-04-14T16:06:01.250Z,11.90
2018-04-14T16:08:30.395Z,11.88
2018-04-14T16:10:59.651Z,11.49
2018-04-14T16:13:28.692Z,11.77
2018-04-14T16:15:58.013Z,11.62
2018-04-14T16:18:27.350Z,11.65
2018-04-14T16:20:56.500Z,11.74
2018-04-14T16:23:25.858Z,11.67
2018-04-14T16:25:55.098Z,11.72
2018-04-14T16:28:24.188Z,11.46
2018-04-14T16:30:53.236Z,11.64
2018-04-14T16:33:22.797Z,11.52
2018-04-14T16:35:51.768Z,11.55
2018-04-14T16:38:20.776Z,11.46
2018-04-14T16:40:49.827Z,11.32
2018-04-14T16:43:19.080Z,11.69
2018-04-14T16:45:48.169Z,11.77
2018-04-14T16:48:17.365Z,11.80
2018-04-14T16:50:46.626Z,11.76
2018-04-14T16:53:15.771Z,11.59
2018-04-14T16:55:44.861Z,11.63
2018-04-14T16:58:14.101Z,11.63
2018-04-14T17:00:43.173Z,11.61
2018-04-14T17:03:12.236Z,11.67
2018-04-14T17:05:41.305Z,11.70
2018-04-14T17:08:10.340Z,11.91
2018-04-14T17:10:39.640Z,11.89
2018-04-14T17:13:08.824Z,11.94
2018-04-14T17:15:38.547Z,11.88
2018-04-14T17:18:07.748Z,11.90
2018-04-14T17:20:37.006Z,11.89
2018-04-14T17:23:06.203Z,11.78
2018-04-14T17:25:35.270Z,11.86
2018-04-14T17:28:04.540Z,11.77
2018-04-14T17:30:33.597Z,11.75
2018-04-14T17:33:02.772Z,11.88
2018-04-14T17:35:31.888Z,11.90
2018-04-14T17:38:01.017Z,12.05
2018-04-14T17:40:30.244Z,11.73
2018-04-14T17:42:59.319Z,12.11
2018-04-14T17:45:28.474Z,12.10
2018-04-14T17:47:57.529Z,12.02
2018-04-14T17:50:26.772Z,11.81
2018-04-14T17:52:55.911Z,11.83
2018-04-14T17:55:25.010Z,12.01
2018-04-14T17:57:54.251Z,11.91
2018-04-14T18:00:23.520Z,11.95
2018-04-14T18:02:52.740Z,12.16
2018-04-14T18:05:22.069Z,11.84
2018-04-14T18:07:51.244Z,12.07
2018-04-14T18:10:20.404Z,12.18
2018-04-14T18:12:49.499Z,12.17
2018-04-14T18:15:18.596Z,12.17
2018-04-14T18:17:47.592Z,11.84
2018-04-14T18:20:16.760Z,11.98
2018-04-14T18:22:45.840Z,12.06
2018-04-14T18:25:15.107Z,11.98
2018-04-14T18:27:44.394Z,11.96
2018-04-14T18:30:13.531Z,12.25
2018-04-14T18:32:42.600Z,12.28
2018-04-14T18:35:11.793Z,12.08
2018-04-14T18:37:40.960Z,12.19
2018-04-14T18:40:10.213Z,12.21
2018-04-14T18:42:39.411Z,12.10
2018-04-14T18:45:08.712Z,12.17
2018-04-14T18:47:37.764Z,12.29
2018-04-14T18:50:06.871Z,12.32
2018-04-14T18:52:36.409Z,11.74
2018-04-14T18:55:05.464Z,11.91
2018-04-14T18:57:34.622Z,11.68
2018-04-14T19:00:03.866Z,11.88
2018-04-14T19:02:33.059Z,11.91
2018-04-14T19:05:02.460Z,12.28
2018-04-14T19:07:31.821Z,12.19
2018-04-14T19:10:00.969Z,12.20
2018-04-14T19:12:30.329Z,12.02
2018-04-14T19:14:59.512Z,12.10
2018-04-14T19:17:28.694Z,12.08
2018-04-14T19:19:57.817Z,12.08
2018-04-14T19:22:26.819Z,11.82
2018-04-14T19:24:55.785Z,11.97
2018-04-14T19:27:24.788Z,12.12
2018-04-14T19:29:53.897Z,11.81
2018-04-14T19:32:22.985Z,11.68
2018-04-14T19:34:51.976Z,11.96
2018-04-14T19:37:21.032Z,11.80
2018-04-14T19:39:50.105Z,11.55
2018-04-14T19:42:19.217Z,11.59
2018-04-14T19:44:48.556Z,11.63
2018-04-14T19:47:17.803Z,11.57
2018-04-14T19:49:46.851Z,11.71
2018-04-14T19:52:16.094Z,11.63
2018-04-14T19:54:45.247Z,11.88
2018-04-14T19:57:14.397Z,12.10
2018-04-14T19:59:43.469Z,11.81
2018-04-14T20:02:12.612Z,11.85
2018-04-14T20:04:41.745Z,11.94
2018-04-14T20:07:11.022Z,11.91
2018-04-14T20:09:40.336Z,11.76
2018-04-14T20:12:09.588Z,12.26
2018-04-14T20:14:38.673Z,12.50
2018-04-14T20:17:07.861Z,12.46
2018-04-14T20:19:37.232Z,12.17
2018-04-14T20:22:06.539Z,12.00
2018-04-14T20:24:35.853Z,12.09
2018-04-14T20:27:05.257Z,11.91
2018-04-14T20:29:34.435Z,11.93
2018-04-14T20:32:03.487Z,11.84
2018-04-14T20:34:32.653Z,11.98
2018-04-14T20:37:01.981Z,12.01
2018-04-14T20:39:31.001Z,11.97
2018-04-14T20:42:00.528Z,11.81
2018-04-14T20:44:29.788Z,12.11
2018-04-14T20:46:58.936Z,12.10
2018-04-14T20:49:28.124Z,12.14
2018-04-14T20:51:57.286Z,11.33
2018-04-14T20:54:26.841Z,11.37
2018-04-14T20:56:56.019Z,11.96
2018-04-14T20:59:25.327Z,12.38
2018-04-14T21:01:54.325Z,12.15
2018-04-14T21:04:23.421Z,12.08
2018-04-14T21:06:52.571Z,12.02
2018-04-14T21:09:22.225Z,12.39
2018-04-14T21:11:51.273Z,11.79
2018-04-14T21:14:21.864Z,11.70
2018-04-14T21:16:51.055Z,11.61
2018-04-14T21:19:20.252Z,11.94
2018-04-14T21:21:49.347Z,11.90
2018-04-14T21:24:18.705Z,11.53
2018-04-14T21:26:48.020Z,12.23
2018-04-14T21:29:17.148Z,12.34
2018-04-14T21:31:46.209Z,12.11
2018-04-14T21:34:15.395Z,11.59
2018-04-14T21:36:44.535Z,11.50
2018-04-14T21:39:13.535Z,12.12
2018-04-14T21:41:42.584Z,11.60
2018-04-14T21:44:11.667Z,11.69
2018-04-14T21:46:40.716Z,11.61
2018-04-14T21:49:09.785Z,11.38
2018-04-14T21:51:38.915Z,11.79
2018-04-14T21:54:08.110Z,12.04
2018-04-14T21:56:37.260Z,12.17
2018-04-14T21:59:06.499Z,12.26
2018-04-14T22:01:35.600Z,12.09
2018-04-14T22:04:04.847Z,11.90
2018-04-14T22:06:33.766Z,12.55
2018-04-14T22:09:02.988Z,12.44
2018-04-14T22:11:32.161Z,11.70
2018-04-14T22:14:01.285Z,11.52
2018-04-14T22:16:30.220Z,11.50
2018-04-14T22:18:59.311Z,11.93
2018-04-14T22:21:28.249Z,11.62
2018-04-14T22:23:57.332Z,11.72
2018-04-14T22:26:26.473Z,12.03
2018-04-14T22:28:55.556Z,11.85
2018-04-14T22:31:24.532Z,11.73
2018-04-14T22:33:53.525Z,11.77
2018-04-14T22:36:22.694Z,11.77
2018-04-14T22:38:51.889Z,11.52
2018-04-14T22:41:20.968Z,11.45
2018-04-14T22:43:50.202Z,11.42
2018-04-14T22:46:19.491Z,11.48
2018-04-14T22:48:48.474Z,11.46
2018-04-14T22:51:17.728Z,11.16
2018-04-14T22:53:46.893Z,11.91
2018-04-14T22:56:16.081Z,11.85
2018-04-14T22:58:45.321Z,11.64
2018-04-14T23:01:14.724Z,11.63
2018-04-14T23:03:43.924Z,11.39
2018-04-14T23:06:13.168Z,11.48
2018-04-14T23:08:42.379Z,11.42
2018-04-14T23:11:11.620Z,11.16
2018-04-14T23:13:40.784Z,11.17
2018-04-14T23:16:09.981Z,11.08
2018-04-14T23:18:39.019Z,11.52
2018-04-14T23:21:08.072Z,11.43
2018-04-14T23:23:38.577Z,11.65
2018-04-14T23:26:09.209Z,11.87
2018-04-14T23:28:40.659Z,11.26
2018-04-14T23:31:11.961Z,11.13
2018-04-14T23:33:42.041Z,11.84
2018-04-14T23:36:11.079Z,11.35
2018-04-14T23:38:40.135Z,11.29
2018-04-14T23:41:09.394Z,11.41
2018-04-14T23:43:38.650Z,11.52
2018-04-14T23:46:07.888Z,11.33
2018-04-14T23:48:37.019Z,11.29
2018-04-14T23:51:06.229Z,11.47
2018-04-14T23:53:35.381Z,11.83
2018-04-14T23:56:04.684Z,11.65
2018-04-14T23:58:33.964Z,11.59
